sensor_id;sensor_type;location;lat;lon;timestamp;P1;durP1;ratioP1;P2;durP2;ratioP2
75914;SDS011;64593;51.050;13.780;2023-04-06T06:04:55;9.25;;;3.97;;
75914;SDS011;64593;51.050;13.780;2023-04-06T06:10:02;8.75;;;4.53;;
75914;SDS011;64593;51.050;13.780;2023-04-06T06:15:07;6.70;;;4.35;;
75914;SDS011;64593;51.050;13.780;2023-04-06T06:20:14;4.90;;;2.97;;
75914;SDS011;64593;51.050;13.780;2023-04-06T06:25:17;8.55;;;3.22;;
75914;SDS011;64593;51.050;13.780;2023-04-06T06:30:23;7.80;;;3.67;;
75914;SDS011;64593;51.050;13.780;2023-04-06T06:35:27;9.70;;;2.92;;
75914;SDS011;64593;51.050;13.780;2023-04-06T06:40:36;6.75;;;2.47;;
75914;SDS011;64593;51.050;13.780;2023-04-06T06:45:39;6.85;;;3.38;;
75914;SDS011;64593;51.050;13.780;2023-04-06T06:50:41;7.72;;;3.90;;
75914;SDS011;64593;51.050;13.780;2023-04-06T06:55:46;10.05;;;4.40;;
75914;SDS011;64593;51.050;13.780;2023-04-06T07:00:50;8.27;;;4.05;;
75914;SDS011;64593;51.050;13.780;2023-04-06T07:05:52;6.90;;;3.85;;
75914;SDS011;64593;51.050;13.780;2023-04-06T07:10:56;6.95;;;3.42;;
75914;SDS011;64593;51.050;13.780;2023-04-06T07:21:03;4.40;;;2.58;;
75914;SDS011;64593;51.050;13.780;2023-04-06T07:26:05;6.25;;;2.72;;
75914;SDS011;64593;51.050;13.780;2023-04-06T07:31:06;6.05;;;2.97;;
75914;SDS011;64593;51.050;13.780;2023-04-06T07:36:11;10.52;;;4.22;;
75914;SDS011;64593;51.050;13.780;2023-04-06T07:41:15;9.30;;;4.10;;
75914;SDS011;64593;51.050;13.780;2023-04-06T07:46:17;6.40;;;2.63;;
75914;SDS011;64593;51.050;13.780;2023-04-06T07:51:19;5.93;;;2.40;;
75914;SDS011;64593;51.050;13.780;2023-04-06T07:56:22;9.15;;;4.40;;
75914;SDS011;64593;51.050;13.780;2023-04-06T08:01:27;9.43;;;3.97;;
75914;SDS011;64593;51.050;13.780;2023-04-06T08:06:32;9.40;;;4.10;;
75914;SDS011;64593;51.050;13.780;2023-04-06T08:11:34;6.25;;;2.92;;
75914;SDS011;64593;51.050;13.780;2023-04-06T08:16:36;6.75;;;3.20;;
75914;SDS011;64593;51.050;13.780;2023-04-06T08:21:40;8.00;;;4.50;;
75914;SDS011;64593;51.050;13.780;2023-04-06T08:26:42;8.18;;;3.25;;
75914;SDS011;64593;51.050;13.780;2023-04-06T08:31:46;4.03;;;1.95;;
75914;SDS011;64593;51.050;13.780;2023-04-06T08:36:48;10.60;;;4.45;;
75914;SDS011;64593;51.050;13.780;2023-04-06T08:41:51;7.13;;;3.42;;
75914;SDS011;64593;51.050;13.780;2023-04-06T08:51:55;10.73;;;2.97;;
75914;SDS011;64593;51.050;13.780;2023-04-06T08:57:01;6.05;;;3.20;;
75914;SDS011;64593;51.050;13.780;2023-04-06T09:02:04;6.90;;;3.67;;
75914;SDS011;64593;51.050;13.780;2023-04-06T09:07:08;5.78;;;2.20;;
75914;SDS011;64593;51.050;13.780;2023-04-06T09:12:11;6.10;;;2.70;;
75914;SDS011;64593;51.050;13.780;2023-04-06T09:17:32;6.60;;;3.25;;
75914;SDS011;64593;51.050;13.780;2023-04-06T09:22:36;14.40;;;4.60;;
75914;SDS011;64593;51.050;13.780;2023-04-06T09:27:38;6.35;;;2.45;;
75914;SDS011;64593;51.050;13.780;2023-04-06T09:32:44;5.95;;;3.15;;
75914;SDS011;64593;51.050;13.780;2023-04-06T09:37:59;4.97;;;2.90;;
75914;SDS011;64593;51.050;13.780;2023-04-06T09:43:12;5.93;;;3.08;;
75914;SDS011;64593;51.050;13.780;2023-04-06T09:48:30;5.45;;;2.65;;
75914;SDS011;64593;51.050;13.780;2023-04-06T09:53:33;6.03;;;2.58;;
75914;SDS011;64593;51.050;13.780;2023-04-06T09:58:37;3.55;;;2.45;;
75914;SDS011;64593;51.050;13.780;2023-04-06T10:04:08;8.05;;;3.03;;
75914;SDS011;64593;51.050;13.780;2023-04-06T10:09:22;5.50;;;2.97;;
75914;SDS011;64593;51.050;13.780;2023-04-06T10:14:26;6.20;;;3.08;;
75914;SDS011;64593;51.050;13.780;2023-04-06T10:19:29;4.97;;;2.70;;
75914;SDS011;64593;51.050;13.780;2023-04-06T10:25:25;5.97;;;2.90;;
75914;SDS011;64593;51.050;13.780;2023-04-06T10:30:30;5.82;;;3.60;;
75914;SDS011;64593;51.050;13.780;2023-04-06T10:35:38;8.27;;;2.20;;
75914;SDS011;64593;51.050;13.780;2023-04-06T10:40:42;4.43;;;2.85;;
75914;SDS011;64593;51.050;13.780;2023-04-06T10:45:56;5.80;;;2.50;;
75914;SDS011;64593;51.050;13.780;2023-04-06T10:50:59;5.20;;;2.58;;
75914;SDS011;64593;51.050;13.780;2023-04-06T10:56:01;5.93;;;2.90;;
75914;SDS011;64593;51.050;13.780;2023-04-06T11:01:04;4.45;;;2.60;;
75914;SDS011;64593;51.050;13.780;2023-04-06T11:06:31;3.88;;;2.63;;
75914;SDS011;64593;51.050;13.780;2023-04-06T11:11:33;2.97;;;2.00;;
75914;SDS011;64593;51.050;13.780;2023-04-06T11:16:42;6.03;;;2.58;;
75914;SDS011;64593;51.050;13.780;2023-04-06T11:21:46;5.20;;;2.47;;
75914;SDS011;64593;51.050;13.780;2023-04-06T11:27:14;7.00;;;2.85;;
75914;SDS011;64593;51.050;13.780;2023-04-06T11:32:21;2.45;;;1.65;;
75914;SDS011;64593;51.050;13.780;2023-04-06T11:37:48;4.22;;;1.65;;
75914;SDS011;64593;51.050;13.780;2023-04-06T11:43:16;4.18;;;2.92;;
75914;SDS011;64593;51.050;13.780;2023-04-06T11:48:22;3.72;;;2.33;;
75914;SDS011;64593;51.050;13.780;2023-04-06T11:53:53;4.13;;;2.58;;
75914;SDS011;64593;51.050;13.780;2023-04-06T11:59:21;3.25;;;1.90;;
75914;SDS011;64593;51.050;13.780;2023-04-06T12:04:49;3.45;;;2.40;;
75914;SDS011;64593;51.050;13.780;2023-04-06T12:09:56;4.05;;;2.05;;
75914;SDS011;64593;51.050;13.780;2023-04-06T12:15:04;3.33;;;2.20;;
75914;SDS011;64593;51.050;13.780;2023-04-06T12:20:08;5.95;;;2.17;;
75914;SDS011;64593;51.050;13.780;2023-04-06T12:25:27;4.15;;;2.88;;
75914;SDS011;64593;51.050;13.780;2023-04-06T12:30:55;6.72;;;2.88;;
75914;SDS011;64593;51.050;13.780;2023-04-06T12:35:56;6.45;;;2.60;;
75914;SDS011;64593;51.050;13.780;2023-04-06T12:41:23;5.43;;;2.85;;
75914;SDS011;64593;51.050;13.780;2023-04-06T12:46:28;5.60;;;2.40;;
75914;SDS011;64593;51.050;13.780;2023-04-06T12:51:39;2.92;;;1.80;;
75914;SDS011;64593;51.050;13.780;2023-04-06T12:56:41;6.00;;;3.50;;
75914;SDS011;64593;51.050;13.780;2023-04-06T13:02:08;5.35;;;3.28;;
75914;SDS011;64593;51.050;13.780;2023-04-06T13:07:10;5.05;;;2.92;;
75914;SDS011;64593;51.050;13.780;2023-04-06T13:12:15;7.30;;;3.22;;
75914;SDS011;64593;51.050;13.780;2023-04-06T13:17:42;5.30;;;3.20;;
75914;SDS011;64593;51.050;13.780;2023-04-06T13:23:09;4.63;;;2.72;;
75914;SDS011;64593;51.050;13.780;2023-04-06T13:28:16;4.68;;;2.80;;
75914;SDS011;64593;51.050;13.780;2023-04-06T13:33:17;6.45;;;2.80;;
75914;SDS011;64593;51.050;13.780;2023-04-06T13:38:45;8.35;;;3.20;;
75914;SDS011;64593;51.050;13.780;2023-04-06T13:44:12;7.60;;;3.33;;
75914;SDS011;64593;51.050;13.780;2023-04-06T13:49:38;7.97;;;2.88;;
75914;SDS011;64593;51.050;13.780;2023-04-06T13:54:41;3.50;;;2.13;;
75914;SDS011;64593;51.050;13.780;2023-04-06T13:59:42;5.43;;;2.30;;
75914;SDS011;64593;51.050;13.780;2023-04-06T14:04:49;4.47;;;2.35;;
75914;SDS011;64593;51.050;13.780;2023-04-06T14:10:16;3.95;;;2.50;;
75914;SDS011;64593;51.050;13.780;2023-04-06T14:15:43;3.28;;;2.30;;
75914;SDS011;64593;51.050;13.780;2023-04-06T14:20:44;2.40;;;1.15;;
75914;SDS011;64593;51.050;13.780;2023-04-06T14:26:12;2.15;;;1.17;;
75914;SDS011;64593;51.050;13.780;2023-04-06T14:31:39;3.00;;;1.63;;
75914;SDS011;64593;51.050;13.780;2023-04-06T14:37:05;3.65;;;2.30;;
75914;SDS011;64593;51.050;13.780;2023-04-06T14:42:07;7.00;;;2.78;;
75914;SDS011;64593;51.050;13.780;2023-04-06T14:47:09;4.55;;;3.03;;
75914;SDS011;64593;51.050;13.780;2023-04-06T14:52:36;4.07;;;2.40;;
75914;SDS011;64593;51.050;13.780;2023-04-06T14:58:05;3.55;;;2.17;;
75914;SDS011;64593;51.050;13.780;2023-04-06T15:03:08;4.88;;;3.13;;
75914;SDS011;64593;51.050;13.780;2023-04-06T15:08:36;7.53;;;2.72;;
75914;SDS011;64593;51.050;13.780;2023-04-06T15:14:05;4.68;;;2.40;;
75914;SDS011;64593;51.050;13.780;2023-04-06T15:19:07;8.02;;;2.83;;
75914;SDS011;64593;51.050;13.780;2023-04-06T15:24:09;3.47;;;2.33;;
75914;SDS011;64593;51.050;13.780;2023-04-06T15:29:37;4.40;;;2.83;;
75914;SDS011;64593;51.050;13.780;2023-04-06T15:34:38;7.00;;;2.33;;
75914;SDS011;64593;51.050;13.780;2023-04-06T15:39:40;3.10;;;1.95;;
75914;SDS011;64593;51.050;13.780;2023-04-06T15:45:07;2.35;;;1.35;;
75914;SDS011;64593;51.050;13.780;2023-04-06T15:50:09;7.47;;;2.88;;
75914;SDS011;64593;51.050;13.780;2023-04-06T15:55:36;7.45;;;2.08;;
75914;SDS011;64593;51.050;13.780;2023-04-06T16:01:17;3.55;;;2.50;;
75914;SDS011;64593;51.050;13.780;2023-04-06T16:11:46;3.92;;;2.03;;
75914;SDS011;64593;51.050;13.780;2023-04-06T16:17:13;4.43;;;2.40;;
75914;SDS011;64593;51.050;13.780;2023-04-06T16:22:40;4.55;;;2.72;;
75914;SDS011;64593;51.050;13.780;2023-04-06T16:27:42;5.40;;;2.60;;
75914;SDS011;64593;51.050;13.780;2023-04-06T16:32:44;3.30;;;2.25;;
75914;SDS011;64593;51.050;13.780;2023-04-06T16:37:47;4.38;;;2.53;;
75914;SDS011;64593;51.050;13.780;2023-04-06T16:43:15;6.03;;;2.35;;
75914;SDS011;64593;51.050;13.780;2023-04-06T16:48:42;3.95;;;2.17;;
75914;SDS011;64593;51.050;13.780;2023-04-06T16:54:10;3.42;;;2.67;;
75914;SDS011;64593;51.050;13.780;2023-04-06T16:59:39;4.10;;;2.50;;
75914;SDS011;64593;51.050;13.780;2023-04-06T17:04:45;6.88;;;3.15;;
75914;SDS011;64593;51.050;13.780;2023-04-06T17:09:49;5.75;;;2.85;;
75914;SDS011;64593;51.050;13.780;2023-04-06T17:14:50;3.38;;;2.20;;
75914;SDS011;64593;51.050;13.780;2023-04-06T17:20:18;3.60;;;2.40;;
75914;SDS011;64593;51.050;13.780;2023-04-06T17:25:20;5.63;;;2.47;;
75914;SDS011;64593;51.050;13.780;2023-04-06T17:30:24;5.82;;;2.55;;
75914;SDS011;64593;51.050;13.780;2023-04-06T17:35:51;4.05;;;2.42;;
75914;SDS011;64593;51.050;13.780;2023-04-06T17:41:18;3.17;;;1.95;;
75914;SDS011;64593;51.050;13.780;2023-04-06T17:46:22;4.95;;;2.53;;
75914;SDS011;64593;51.050;13.780;2023-04-06T17:51:48;3.05;;;1.90;;
75914;SDS011;64593;51.050;13.780;2023-04-06T17:57:15;3.42;;;2.00;;
75914;SDS011;64593;51.050;13.780;2023-04-06T18:02:43;3.38;;;2.38;;
75914;SDS011;64593;51.050;13.780;2023-04-06T18:07:44;5.07;;;2.28;;
75914;SDS011;64593;51.050;13.780;2023-04-06T18:12:47;5.05;;;2.47;;
75914;SDS011;64593;51.050;13.780;2023-04-06T18:18:13;5.88;;;3.17;;
75914;SDS011;64593;51.050;13.780;2023-04-06T18:23:17;5.90;;;3.30;;
75914;SDS011;64593;51.050;13.780;2023-04-06T18:28:19;3.22;;;1.90;;
75914;SDS011;64593;51.050;13.780;2023-04-06T18:33:21;5.28;;;3.30;;
75914;SDS011;64593;51.050;13.780;2023-04-06T18:38:48;11.10;;;4.68;;
75914;SDS011;64593;51.050;13.780;2023-04-06T18:43:56;5.57;;;3.70;;
75914;SDS011;64593;51.050;13.780;2023-04-06T18:49:22;8.88;;;5.75;;
75914;SDS011;64593;51.050;13.780;2023-04-06T18:54:24;10.13;;;5.72;;
75914;SDS011;64593;51.050;13.780;2023-04-06T18:59:34;12.15;;;5.45;;
75914;SDS011;64593;51.050;13.780;2023-04-06T19:04:36;8.88;;;5.32;;
75914;SDS011;64593;51.050;13.780;2023-04-06T19:09:38;11.55;;;6.55;;
75914;SDS011;64593;51.050;13.780;2023-04-06T19:15:06;10.35;;;6.25;;
75914;SDS011;64593;51.050;13.780;2023-04-06T19:20:08;9.18;;;6.50;;
75914;SDS011;64593;51.050;13.780;2023-04-06T19:25:10;9.10;;;5.40;;
75914;SDS011;64593;51.050;13.780;2023-04-06T19:30:37;12.27;;;5.55;;
75914;SDS011;64593;51.050;13.780;2023-04-06T19:36:05;13.48;;;6.47;;
75914;SDS011;64593;51.050;13.780;2023-04-06T19:41:13;11.13;;;6.18;;
75914;SDS011;64593;51.050;13.780;2023-04-06T19:46:16;11.98;;;6.05;;
75914;SDS011;64593;51.050;13.780;2023-04-06T19:51:42;8.63;;;5.75;;
75914;SDS011;64593;51.050;13.780;2023-04-06T19:56:45;13.90;;;6.90;;
75914;SDS011;64593;51.050;13.780;2023-04-06T20:01:54;12.43;;;6.75;;
75914;SDS011;64593;51.050;13.780;2023-04-06T20:07:21;17.45;;;8.52;;
75914;SDS011;64593;51.050;13.780;2023-04-06T20:12:47;11.85;;;6.78;;
75914;SDS011;64593;51.050;13.780;2023-04-06T20:18:16;12.45;;;7.43;;
75914;SDS011;64593;51.050;13.780;2023-04-06T20:23:17;16.40;;;7.78;;
75914;SDS011;64593;51.050;13.780;2023-04-06T20:28:19;15.07;;;8.15;;
75914;SDS011;64593;51.050;13.780;2023-04-06T20:33:22;13.45;;;7.97;;
75914;SDS011;64593;51.050;13.780;2023-04-06T20:38:25;14.57;;;8.48;;
75914;SDS011;64593;51.050;13.780;2023-04-06T20:43:40;13.27;;;7.95;;
75914;SDS011;64593;51.050;13.780;2023-04-06T20:49:07;15.20;;;8.93;;
75914;SDS011;64593;51.050;13.780;2023-04-06T20:54:33;23.10;;;10.00;;
75914;SDS011;64593;51.050;13.780;2023-04-06T21:00:01;16.00;;;9.18;;
75914;SDS011;64593;51.050;13.780;2023-04-06T21:05:05;13.45;;;8.88;;
75914;SDS011;64593;51.050;13.780;2023-04-06T21:10:33;17.55;;;10.05;;
75914;SDS011;64593;51.050;13.780;2023-04-06T21:15:35;20.70;;;9.23;;
75914;SDS011;64593;51.050;13.780;2023-04-06T21:21:02;17.42;;;8.57;;
75914;SDS011;64593;51.050;13.780;2023-04-06T21:26:04;13.35;;;8.95;;
75914;SDS011;64593;51.050;13.780;2023-04-06T21:31:31;13.32;;;8.98;;
75914;SDS011;64593;51.050;13.780;2023-04-06T21:37:00;15.80;;;9.43;;
75914;SDS011;64593;51.050;13.780;2023-04-06T21:42:27;11.90;;;7.45;;
75914;SDS011;64593;51.050;13.780;2023-04-06T21:47:28;15.20;;;8.85;;
75914;SDS011;64593;51.050;13.780;2023-04-06T21:52:30;17.90;;;8.52;;
75914;SDS011;64593;51.050;13.780;2023-04-06T21:57:32;18.05;;;10.07;;
